sensor_id;sensor_type;location;lat;lon;timestamp;pressure;altitude;pressure_sealevel;temperature;humidity
7918;BME280;4004;42.624;23.386;2023-04-22T00:00:03;93833.41;;;8.87;93.05
7918;BME280;4004;42.624;23.386;2023-04-22T00:02:30;93830.06;;;8.75;93.66
7918;BME280;4004;42.624;23.386;2023-04-22T00:04:58;93829.19;;;8.70;93.75
7918;BME280;4004;42.624;23.386;2023-04-22T00:07:25;93829.38;;;8.62;94.48
7918;BME280;4004;42.624;23.386;2023-04-22T00:09:52;93824.47;;;8.64;94.93
7918;BME280;4004;42.624;23.386;2023-04-22T00:12:20;93821.69;;;8.60;95.26
7918;BME280;4004;42.624;23.386;2023-04-22T00:14:47;93814.03;;;8.59;95.38
7918;BME280;4004;42.624;23.386;2023-04-22T00:17:14;93821.81;;;8.48;95.87
7918;BME280;4004;42.624;23.386;2023-04-22T00:19:40;93811.78;;;8.29;97.04
7918;BME280;4004;42.624;23.386;2023-04-22T00:22:08;93816.69;;;8.27;97.88
7918;BME280;4004;42.624;23.386;2023-04-22T00:24:35;93822.16;;;8.30;98.73
7918;BME280;4004;42.624;23.386;2023-04-22T00:27:02;93815.16;;;8.26;98.75
7918;BME280;4004;42.624;23.386;2023-04-22T00:29:30;93815.63;;;8.12;99.71
7918;BME280;4004;42.624;23.386;2023-04-22T00:31:57;93813.88;;;8.20;99.50
7918;BME280;4004;42.624;23.386;2023-04-22T00:34:23;93815.63;;;8.12;99.94
7918;BME280;4004;42.624;23.386;2023-04-22T00:36:50;93807.16;;;8.10;100.00
7918;BME280;4004;42.624;23.386;2023-04-22T00:39:17;93815.63;;;8.12;100.00
7918;BME280;4004;42.624;23.386;2023-04-22T00:41:44;93809.66;;;8.03;100.00
7918;BME280;4004;42.624;23.386;2023-04-22T00:44:11;93803.00;;;7.97;100.00
7918;BME280;4004;42.624;23.386;2023-04-22T00:46:39;93824.50;;;8.00;100.00
7918;BME280;4004;42.624;23.386;2023-04-22T00:49:06;93813.00;;;8.00;100.00
7918;BME280;4004;42.624;23.386;2023-04-22T00:51:34;93815.97;;;7.95;100.00
7918;BME280;4004;42.624;23.386;2023-04-22T00:54:00;93811.47;;;7.99;100.00
7918;BME280;4004;42.624;23.386;2023-04-22T00:56:30;93811.53;;;8.02;100.00
7918;BME280;4004;42.624;23.386;2023-04-22T00:58:57;93811.53;;;8.02;100.00
7918;BME280;4004;42.624;23.386;2023-04-22T01:01:25;93818.47;;;8.03;99.99
7918;BME280;4004;42.624;23.386;2023-04-22T01:03:53;93826.81;;;8.02;99.89
7918;BME280;4004;42.624;23.386;2023-04-22T01:06:21;93825.19;;;7.97;100.00
7918;BME280;4004;42.624;23.386;2023-04-22T01:08:50;93835.03;;;7.93;100.00
7918;BME280;4004;42.624;23.386;2023-04-22T01:11:16;93831.31;;;7.82;100.00
7918;BME280;4004;42.624;23.386;2023-04-22T01:13:43;93835.78;;;7.62;100.00
7918;BME280;4004;42.624;23.386;2023-04-22T01:16:10;93826.19;;;7.45;100.00
7918;BME280;4004;42.624;23.386;2023-04-22T01:18:37;93828.16;;;7.48;100.00
7918;BME280;4004;42.624;23.386;2023-04-22T01:21:05;93829.28;;;7.47;100.00
7918;BME280;4004;42.624;23.386;2023-04-22T01:23:33;93825.19;;;7.37;100.00
7918;BME280;4004;42.624;23.386;2023-04-22T01:26:00;93830.66;;;7.41;100.00
7918;BME280;4004;42.624;23.386;2023-04-22T01:28:27;93831.44;;;7.41;100.00
7918;BME280;4004;42.624;23.386;2023-04-22T01:30:55;93830.66;;;7.41;100.00
7918;BME280;4004;42.624;23.386;2023-04-22T01:33:22;93832.78;;;7.35;100.00
7918;BME280;4004;42.624;23.386;2023-04-22T01:35:49;93826.78;;;7.38;100.00
7918;BME280;4004;42.624;23.386;2023-04-22T01:38:16;93825.91;;;7.50;100.00
7918;BME280;4004;42.624;23.386;2023-04-22T01:40:44;93822.66;;;7.57;100.00
7918;BME280;4004;42.624;23.386;2023-04-22T01:43:10;93830.94;;;7.52;100.00
7918;BME280;4004;42.624;23.386;2023-04-22T01:45:37;93829.66;;;7.61;100.00
7918;BME280;4004;42.624;23.386;2023-04-22T01:48:04;93833.53;;;7.64;100.00
7918;BME280;4004;42.624;23.386;2023-04-22T01:50:32;93825.34;;;7.57;100.00
7918;BME280;4004;42.624;23.386;2023-04-22T01:52:58;93819.97;;;7.57;100.00
7918;BME280;4004;42.624;23.386;2023-04-22T01:55:25;93824.84;;;7.67;100.00
7918;BME280;4004;42.624;23.386;2023-04-22T01:57:53;93825.00;;;7.74;100.00
7918;BME280;4004;42.624;23.386;2023-04-22T02:00:20;93825.09;;;7.78;100.00
7918;BME280;4004;42.624;23.386;2023-04-22T02:02:47;93825.09;;;7.78;100.00
7918;BME280;4004;42.624;23.386;2023-04-22T02:05:14;93828.56;;;7.78;100.00
7918;BME280;4004;42.624;23.386;2023-04-22T02:07:41;93823.28;;;7.82;100.00
7918;BME280;4004;42.624;23.386;2023-04-22T02:10:08;93827.59;;;7.86;100.00
7918;BME280;4004;42.624;23.386;2023-04-22T02:12:35;93832.63;;;7.88;100.00
7918;BME280;4004;42.624;23.386;2023-04-22T02:15:05;93834.25;;;7.93;100.00
7918;BME280;4004;42.624;23.386;2023-04-22T02:17:32;93833.38;;;7.88;100.00
7918;BME280;4004;42.624;23.386;2023-04-22T02:20:00;93830.28;;;7.86;100.00
7918;BME280;4004;42.624;23.386;2023-04-22T02:22:27;93834.41;;;7.68;100.00
7918;BME280;4004;42.624;23.386;2023-04-22T02:24:54;93832.91;;;7.55;100.00
7918;BME280;4004;42.624;23.386;2023-04-22T02:27:21;93826.13;;;7.29;100.00
7918;BME280;4004;42.624;23.386;2023-04-22T02:29:48;93827.66;;;7.14;100.00
7918;BME280;4004;42.624;23.386;2023-04-22T02:32:16;93819.06;;;7.09;100.00
7918;BME280;4004;42.624;23.386;2023-04-22T02:34:42;93822.56;;;6.97;100.00
7918;BME280;4004;42.624;23.386;2023-04-22T02:37:09;93824.03;;;6.94;100.00
7918;BME280;4004;42.624;23.386;2023-04-22T02:39:36;93828.81;;;7.01;100.00
7918;BME280;4004;42.624;23.386;2023-04-22T02:42:03;93823.75;;;7.12;100.00
7918;BME280;4004;42.624;23.386;2023-04-22T02:44:29;93819.19;;;7.12;100.00
7918;BME280;4004;42.624;23.386;2023-04-22T02:46:56;93829.75;;;7.21;100.00
7918;BME280;4004;42.624;23.386;2023-04-22T02:49:24;93830.38;;;7.30;100.00
7918;BME280;4004;42.624;23.386;2023-04-22T02:51:51;93825.78;;;7.31;100.00
7918;BME280;4004;42.624;23.386;2023-04-22T02:54:18;93828.19;;;7.36;100.00
7918;BME280;4004;42.624;23.386;2023-04-22T02:56:44;93836.88;;;7.45;100.00
7918;BME280;4004;42.624;23.386;2023-04-22T02:59:11;93844.53;;;7.46;100.00
7918;BME280;4004;42.624;23.386;2023-04-22T03:01:38;93838.16;;;7.51;100.00
7918;BME280;4004;42.624;23.386;2023-04-22T03:04:05;93845.25;;;7.59;100.00
7918;BME280;4004;42.624;23.386;2023-04-22T03:06:33;93846.44;;;7.46;100.00
7918;BME280;4004;42.624;23.386;2023-04-22T03:09:00;93842.81;;;7.38;100.00
7918;BME280;4004;42.624;23.386;2023-04-22T03:11:26;93838.63;;;7.25;100.00
7918;BME280;4004;42.624;23.386;2023-04-22T03:13:53;93843.97;;;7.25;100.00
7918;BME280;4004;42.624;23.386;2023-04-22T03:16:21;93844.06;;;7.29;100.00
7918;BME280;4004;42.624;23.386;2023-04-22T03:18:48;93839.94;;;7.31;100.00
7918;BME280;4004;42.624;23.386;2023-04-22T03:21:15;93843.25;;;7.12;100.00
7918;BME280;4004;42.624;23.386;2023-04-22T03:23:43;93842.47;;;7.12;100.00
7918;BME280;4004;42.624;23.386;2023-04-22T03:26:10;93835.22;;;7.12;100.00
7918;BME280;4004;42.624;23.386;2023-04-22T03:28:38;93845.03;;;7.08;100.00
7918;BME280;4004;42.624;23.386;2023-04-22T03:31:04;93848.53;;;6.96;100.00
7918;BME280;4004;42.624;23.386;2023-04-22T03:33:31;93853.31;;;7.03;100.00
7918;BME280;4004;42.624;23.386;2023-04-22T03:35:58;93853.63;;;7.01;100.00
7918;BME280;4004;42.624;23.386;2023-04-22T03:38:25;93857.84;;;7.02;100.00
7918;BME280;4004;42.624;23.386;2023-04-22T03:40:53;93860.53;;;7.02;100.00
7918;BME280;4004;42.624;23.386;2023-04-22T03:43:19;93869.66;;;7.01;100.00
7918;BME280;4004;42.624;23.386;2023-04-22T03:45:47;93857.78;;;6.87;100.00
7918;BME280;4004;42.624;23.386;2023-04-22T03:48:14;93861.03;;;6.80;100.00
7918;BME280;4004;42.624;23.386;2023-04-22T03:50:40;93854.44;;;6.90;100.00
7918;BME280;4004;42.624;23.386;2023-04-22T03:53:07;93859.22;;;6.96;100.00
7918;BME280;4004;42.624;23.386;2023-04-22T03:55:34;93863.66;;;7.33;100.00
7918;BME280;4004;42.624;23.386;2023-04-22T03:58:02;93861.91;;;7.53;100.00
7918;BME280;4004;42.624;23.386;2023-04-22T04:00:29;93864.75;;;7.60;100.00
7918;BME280;4004;42.624;23.386;2023-04-22T04:02:55;93875.28;;;7.97;100.00
7918;BME280;4004;42.624;23.386;2023-04-22T04:05:22;93874.19;;;8.45;100.00
7918;BME280;4004;42.624;23.386;2023-04-22T04:07:49;93878.44;;;8.82;97.16
7918;BME280;4004;42.624;23.386;2023-04-22T04:10:16;93877.59;;;9.13;94.11
7918;BME280;4004;42.624;23.386;2023-04-22T04:12:42;93877.88;;;9.47;89.42
7918;BME280;4004;42.624;23.386;2023-04-22T04:15:11;93876.28;;;10.27;85.01
7918;BME280;4004;42.624;23.386;2023-04-22T04:17:37;93887.50;;;10.83;80.09
7918;BME280;4004;42.624;23.386;2023-04-22T04:20:05;93892.84;;;11.36;74.54
7918;BME280;4004;42.624;23.386;2023-04-22T04:22:32;93889.72;;;12.35;69.65
7918;BME280;4004;42.624;23.386;2023-04-22T04:24:59;93903.09;;;13.21;64.49
7918;BME280;4004;42.624;23.386;2023-04-22T04:27:26;93890.19;;;13.59;59.90
7918;BME280;4004;42.624;23.386;2023-04-22T04:29:53;93901.19;;;14.13;57.55
7918;BME280;4004;42.624;23.386;2023-04-22T04:32:22;93898.94;;;14.54;55.08
7918;BME280;4004;42.624;23.386;2023-04-22T04:34:49;93898.97;;;15.01;53.73
7918;BME280;4004;42.624;23.386;2023-04-22T04:37:16;93910.47;;;15.44;52.23
7918;BME280;4004;42.624;23.386;2023-04-22T04:39:43;93917.41;;;15.60;51.81
7918;BME280;4004;42.624;23.386;2023-04-22T04:42:10;93917.06;;;16.42;50.26
7918;BME280;4004;42.624;23.386;2023-04-22T04:44:38;93920.06;;;17.11;48.01
7918;BME280;4004;42.624;23.386;2023-04-22T04:47:05;93924.16;;;16.85;48.25
7918;BME280;4004;42.624;23.386;2023-04-22T04:49:33;93926.41;;;16.93;48.58
7918;BME280;4004;42.624;23.386;2023-04-22T04:52:04;93924.19;;;17.26;47.57
7918;BME280;4004;42.624;23.386;2023-04-22T04:54:32;93936.06;;;18.15;46.40
7918;BME280;4004;42.624;23.386;2023-04-22T04:56:58;93931.47;;;18.97;44.48
7918;BME280;4004;42.624;23.386;2023-04-22T04:59:26;93925.28;;;19.40;43.01
7918;BME280;4004;42.624;23.386;2023-04-22T05:01:52;93934.81;;;19.05;43.07
7918;BME280;4004;42.624;23.386;2023-04-22T05:04:20;93939.97;;;18.45;43.82
7918;BME280;4004;42.624;23.386;2023-04-22T05:06:48;93942.38;;;17.74;46.11
7918;BME280;4004;42.624;23.386;2023-04-22T05:09:15;93938.56;;;16.71;48.03
7918;BME280;4004;42.624;23.386;2023-04-22T05:11:42;93941.00;;;15.63;50.49
7918;BME280;4004;42.624;23.386;2023-04-22T05:14:09;93934.91;;;14.80;53.06
7918;BME280;4004;42.624;23.386;2023-04-22T05:16:35;93936.06;;;14.89;53.88
7918;BME280;4004;42.624;23.386;2023-04-22T05:19:02;93939.16;;;15.09;53.40
7918;BME280;4004;42.624;23.386;2023-04-22T05:21:29;93926.38;;;15.17;53.25
7918;BME280;4004;42.624;23.386;2023-04-22T05:23:58;93905.13;;;15.19;53.16
7918;BME280;4004;42.624;23.386;2023-04-22T05:26:25;93938.78;;;15.15;53.62
7918;BME280;4004;42.624;23.386;2023-04-22T05:28:52;93931.81;;;15.03;54.46
7918;BME280;4004;42.624;23.386;2023-04-22T05:31:19;93937.59;;;15.30;53.67
7918;BME280;4004;42.624;23.386;2023-04-22T05:33:46;93934.50;;;15.28;54.20
7918;BME280;4004;42.624;23.386;2023-04-22T05:36:13;93937.53;;;15.59;53.34
7918;BME280;4004;42.624;23.386;2023-04-22T05:38:39;93948.31;;;15.87;52.36
7918;BME280;4004;42.624;23.386;2023-04-22T05:41:07;93940.56;;;15.82;52.21
7918;BME280;4004;42.624;23.386;2023-04-22T05:43:34;93948.78;;;15.50;52.93
7918;BME280;4004;42.624;23.386;2023-04-22T05:46:01;93938.34;;;15.27;53.83
7918;BME280;4004;42.624;23.386;2023-04-22T05:48:28;93942.19;;;15.51;53.24
7918;BME280;4004;42.624;23.386;2023-04-22T05:50:55;93942.56;;;15.49;52.99
7918;BME280;4004;42.624;23.386;2023-04-22T05:53:21;93937.50;;;15.84;52.48
7918;BME280;4004;42.624;23.386;2023-04-22T05:55:48;93938.88;;;16.21;52.03
7918;BME280;4004;42.624;23.386;2023-04-22T05:58:17;93936.91;;;16.91;50.79
7918;BME280;4004;42.624;23.386;2023-04-22T06:00:43;93932.56;;;17.43;49.31
7918;BME280;4004;42.624;23.386;2023-04-22T06:03:10;93938.66;;;17.57;48.86
7918;BME280;4004;42.624;23.386;2023-04-22T06:05:37;93944.59;;;18.17;47.69
7918;BME280;4004;42.624;23.386;2023-04-22T06:08:04;93942.34;;;18.12;47.33
7918;BME280;4004;42.624;23.386;2023-04-22T06:10:30;93943.09;;;18.43;47.30
7918;BME280;4004;42.624;23.386;2023-04-22T06:12:57;93945.78;;;18.74;46.56
7918;BME280;4004;42.624;23.386;2023-04-22T06:15:25;93935.91;;;19.11;45.67
7918;BME280;4004;42.624;23.386;2023-04-22T06:17:52;93941.53;;;19.48;44.70
7918;BME280;4004;42.624;23.386;2023-04-22T06:20:19;93938.88;;;19.87;44.09
7918;BME280;4004;42.624;23.386;2023-04-22T06:22:46;93942.59;;;20.17;43.31
7918;BME280;4004;42.624;23.386;2023-04-22T06:25:12;93941.38;;;20.38;42.93
7918;BME280;4004;42.624;23.386;2023-04-22T06:27:39;93947.31;;;20.33;42.54
7918;BME280;4004;42.624;23.386;2023-04-22T06:30:07;93948.97;;;20.11;42.97
7918;BME280;4004;42.624;23.386;2023-04-22T06:32:36;93952.66;;;20.00;42.75
7918;BME280;4004;42.624;23.386;2023-04-22T06:35:03;93956.00;;;20.48;41.92
7918;BME280;4004;42.624;23.386;2023-04-22T06:37:30;93955.66;;;20.26;41.97
7918;BME280;4004;42.624;23.386;2023-04-22T06:39:57;93961.84;;;20.10;42.31
7918;BME280;4004;42.624;23.386;2023-04-22T06:42:24;93959.38;;;19.52;43.72
7918;BME280;4004;42.624;23.386;2023-04-22T06:44:50;93961.84;;;19.90;42.59
7918;BME280;4004;42.624;23.386;2023-04-22T06:47:17;93958.81;;;20.04;42.41
7918;BME280;4004;42.624;23.386;2023-04-22T06:49:45;93966.28;;;19.80;43.10
7918;BME280;4004;42.624;23.386;2023-04-22T06:52:12;93969.03;;;19.57;44.01
7918;BME280;4004;42.624;23.386;2023-04-22T06:54:38;93959.66;;;19.81;43.00
7918;BME280;4004;42.624;23.386;2023-04-22T06:57:05;93958.31;;;20.09;42.76
7918;BME280;4004;42.624;23.386;2023-04-22T06:59:33;93953.41;;;20.01;42.93
7918;BME280;4004;42.624;23.386;2023-04-22T07:01:59;93965.59;;;20.36;42.39
7918;BME280;4004;42.624;23.386;2023-04-22T07:04:26;93960.78;;;20.80;41.70
7918;BME280;4004;42.624;23.386;2023-04-22T07:06:57;93956.88;;;20.81;41.12
7918;BME280;4004;42.624;23.386;2023-04-22T07:09:24;93957.28;;;20.96;41.18
7918;BME280;4004;42.624;23.386;2023-04-22T07:11:51;93965.81;;;20.65;40.89
7918;BME280;4004;42.624;23.386;2023-04-22T07:14:17;93957.88;;;20.51;40.95
7918;BME280;4004;42.624;23.386;2023-04-22T07:16:45;93962.34;;;20.81;40.49
7918;BME280;4004;42.624;23.386;2023-04-22T07:19:12;93962.34;;;21.14;39.83
7918;BME280;4004;42.624;23.386;2023-04-22T07:21:38;93956.66;;;21.41;39.39
7918;BME280;4004;42.624;23.386;2023-04-22T07:24:07;93970.72;;;21.40;39.37
7918;BME280;4004;42.624;23.386;2023-04-22T07:26:36;93965.50;;;21.29;39.74
7918;BME280;4004;42.624;23.386;2023-04-22T07:29:03;93965.28;;;21.23;40.03
7918;BME280;4004;42.624;23.386;2023-04-22T07:31:30;93968.75;;;21.24;39.80
7918;BME280;4004;42.624;23.386;2023-04-22T07:33:56;93969.94;;;21.23;39.68
7918;BME280;4004;42.624;23.386;2023-04-22T07:36:23;93970.16;;;21.48;39.60
7918;BME280;4004;42.624;23.386;2023-04-22T07:38:50;93974.91;;;21.77;39.39
7918;BME280;4004;42.624;23.386;2023-04-22T07:41:18;93966.56;;;21.97;38.18
7918;BME280;4004;42.624;23.386;2023-04-22T07:43:45;93968.28;;;21.91;38.74
7918;BME280;4004;42.624;23.386;2023-04-22T07:46:12;93977.97;;;22.08;37.72
7918;BME280;4004;42.624;23.386;2023-04-22T07:48:39;93965.47;;;22.07;38.36
7918;BME280;4004;42.624;23.386;2023-04-22T07:51:06;93972.09;;;21.93;38.44
7918;BME280;4004;42.624;23.386;2023-04-22T07:53:33;93956.75;;;21.83;38.39
7918;BME280;4004;42.624;23.386;2023-04-22T07:56:00;93959.81;;;21.85;39.07
7918;BME280;4004;42.624;23.386;2023-04-22T07:58:29;93955.75;;;21.77;38.60
7918;BME280;4004;42.624;23.386;2023-04-22T08:00:56;93957.81;;;22.02;38.91
7918;BME280;4004;42.624;23.386;2023-04-22T08:03:22;93954.63;;;22.04;37.13
7918;BME280;4004;42.624;23.386;2023-04-22T08:05:49;93961.34;;;22.15;36.85
7918;BME280;4004;42.624;23.386;2023-04-22T08:08:16;93955.59;;;21.97;37.24
7918;BME280;4004;42.624;23.386;2023-04-22T08:10:43;93956.78;;;21.67;37.72
7918;BME280;4004;42.624;23.386;2023-04-22T08:13:10;93950.13;;;21.51;37.88
7918;BME280;4004;42.624;23.386;2023-04-22T08:15:38;93946.88;;;21.40;38.22
7918;BME280;4004;42.624;23.386;2023-04-22T08:18:05;93954.91;;;21.31;38.53
7918;BME280;4004;42.624;23.386;2023-04-22T08:20:32;93952.00;;;21.22;38.87
7918;BME280;4004;42.624;23.386;2023-04-22T08:22:58;93940.41;;;21.01;39.00
7918;BME280;4004;42.624;23.386;2023-04-22T08:25:25;93944.66;;;20.86;39.55
7918;BME280;4004;42.624;23.386;2023-04-22T08:27:52;93941.06;;;20.89;40.24
7918;BME280;4004;42.624;23.386;2023-04-22T08:30:19;93941.38;;;20.18;40.12
7918;BME280;4004;42.624;23.386;2023-04-22T08:32:47;93946.00;;;19.81;40.56
7918;BME280;4004;42.624;23.386;2023-04-22T08:35:14;93938.88;;;19.87;40.76
7918;BME280;4004;42.624;23.386;2023-04-22T08:37:41;93936.59;;;19.62;41.10
7918;BME280;4004;42.624;23.386;2023-04-22T08:40:08;93929.88;;;19.67;40.84
7918;BME280;4004;42.624;23.386;2023-04-22T08:42:35;93927.63;;;19.62;41.75
7918;BME280;4004;42.624;23.386;2023-04-22T08:45:03;93918.94;;;19.91;41.68
7918;BME280;4004;42.624;23.386;2023-04-22T08:47:30;93917.28;;;19.97;41.83
7918;BME280;4004;42.624;23.386;2023-04-22T08:50:01;93918.19;;;19.70;42.11
7918;BME280;4004;42.624;23.386;2023-04-22T08:52:29;93904.81;;;19.32;42.16
7918;BME280;4004;42.624;23.386;2023-04-22T08:54:56;93912.72;;;19.46;40.89
7918;BME280;4004;42.624;23.386;2023-04-22T08:57:23;93906.09;;;19.48;40.91
7918;BME280;4004;42.624;23.386;2023-04-22T08:59:50;93905.94;;;19.11;41.51
7918;BME280;4004;42.624;23.386;2023-04-22T09:02:19;93896.16;;;18.90;41.88
7918;BME280;4004;42.624;23.386;2023-04-22T09:04:48;93901.78;;;18.79;41.38
7918;BME280;4004;42.624;23.386;2023-04-22T09:07:21;93908.09;;;18.96;41.71
7918;BME280;4004;42.624;23.386;2023-04-22T09:09:49;93901.59;;;19.14;41.30
7918;BME280;4004;42.624;23.386;2023-04-22T09:12:15;93900.69;;;19.44;41.19
7918;BME280;4004;42.624;23.386;2023-04-22T09:14:43;93893.00;;;19.39;41.47
7918;BME280;4004;42.624;23.386;2023-04-22T09:17:14;93898.59;;;19.52;41.21
7918;BME280;4004;42.624;23.386;2023-04-22T09:19:41;93892.84;;;19.26;42.35
7918;BME280;4004;42.624;23.386;2023-04-22T09:22:09;93891.41;;;19.18;40.79
7918;BME280;4004;42.624;23.386;2023-04-22T09:24:42;93892.00;;;18.82;40.50
7918;BME280;4004;42.624;23.386;2023-04-22T09:27:10;93886.13;;;18.56;41.14
7918;BME280;4004;42.624;23.386;2023-04-22T09:29:36;93893.25;;;18.50;40.23
7918;BME280;4004;42.624;23.386;2023-04-22T09:32:08;93887.09;;;18.70;39.73
7918;BME280;4004;42.624;23.386;2023-04-22T09:34:45;93881.59;;;19.00;39.93
7918;BME280;4004;42.624;23.386;2023-04-22T09:37:12;93871.94;;;18.96;40.04
7918;BME280;4004;42.624;23.386;2023-04-22T09:39:42;93879.50;;;18.84;40.41
7918;BME280;4004;42.624;23.386;2023-04-22T09:42:09;93878.03;;;18.80;39.73
7918;BME280;4004;42.624;23.386;2023-04-22T09:44:37;93866.25;;;18.87;40.01
7918;BME280;4004;42.624;23.386;2023-04-22T09:47:04;93873.16;;;18.68;40.12
7918;BME280;4004;42.624;23.386;2023-04-22T09:49:35;93882.63;;;18.32;41.53
7918;BME280;4004;42.624;23.386;2023-04-22T09:52:03;93880.69;;;18.29;41.56
7918;BME280;4004;42.624;23.386;2023-04-22T09:54:29;93877.53;;;18.34;40.14
7918;BME280;4004;42.624;23.386;2023-04-22T09:56:58;93873.47;;;18.46;38.59
7918;BME280;4004;42.624;23.386;2023-04-22T09:59:26;93873.53;;;18.12;38.66
7918;BME280;4004;42.624;23.386;2023-04-22T10:01:55;93883.53;;;18.22;39.34
7918;BME280;4004;42.624;23.386;2023-04-22T10:04:22;93891.38;;;18.16;39.60
7918;BME280;4004;42.624;23.386;2023-04-22T10:06:50;93941.66;;;17.67;41.16
7918;BME280;4004;42.624;23.386;2023-04-22T10:09:18;93906.16;;;17.05;44.28
7918;BME280;4004;42.624;23.386;2023-04-22T10:11:46;93886.75;;;16.54;45.35
7918;BME280;4004;42.624;23.386;2023-04-22T10:14:14;93902.66;;;15.75;44.83
7918;BME280;4004;42.624;23.386;2023-04-22T10:16:44;93883.00;;;15.42;45.26
7918;BME280;4004;42.624;23.386;2023-04-22T10:19:14;93895.03;;;15.27;44.94
7918;BME280;4004;42.624;23.386;2023-04-22T10:21:45;93891.59;;;14.98;43.84
7918;BME280;4004;42.624;23.386;2023-04-22T10:24:15;93890.44;;;14.91;44.58
7918;BME280;4004;42.624;23.386;2023-04-22T10:26:47;93891.22;;;14.96;44.57
7918;BME280;4004;42.624;23.386;2023-04-22T10:29:18;93878.84;;;15.05;44.02
7918;BME280;4004;42.624;23.386;2023-04-22T10:31:51;93869.88;;;15.30;44.05
7918;BME280;4004;42.624;23.386;2023-04-22T10:34:18;93885.31;;;15.40;44.58
7918;BME280;4004;42.624;23.386;2023-04-22T10:36:56;93890.00;;;15.29;42.82
7918;BME280;4004;42.624;23.386;2023-04-22T10:39:24;93894.25;;;15.26;43.44
7918;BME280;4004;42.624;23.386;2023-04-22T10:41:55;93892.72;;;15.22;43.88
7918;BME280;4004;42.624;23.386;2023-04-22T10:44:27;93879.19;;;15.25;45.03
7918;BME280;4004;42.624;23.386;2023-04-22T10:46:56;93896.22;;;15.08;45.43
7918;BME280;4004;42.624;23.386;2023-04-22T10:49:24;93865.31;;;15.05;42.20
7918;BME280;4004;42.624;23.386;2023-04-22T10:51:52;93870.69;;;15.09;44.03
7918;BME280;4004;42.624;23.386;2023-04-22T10:54:56;93870.31;;;15.14;44.35
7918;BME280;4004;42.624;23.386;2023-04-22T10:57:35;93865.66;;;15.25;43.66
7918;BME280;4004;42.624;23.386;2023-04-22T11:00:21;93880.31;;;15.39;43.77
7918;BME280;4004;42.624;23.386;2023-04-22T11:02:54;93867.53;;;15.36;43.80
7918;BME280;4004;42.624;23.386;2023-04-22T11:05:32;93858.59;;;15.49;44.79
7918;BME280;4004;42.624;23.386;2023-04-22T11:08:01;93864.81;;;15.50;44.39
7918;BME280;4004;42.624;23.386;2023-04-22T11:10:33;93876.75;;;15.63;45.23
7918;BME280;4004;42.624;23.386;2023-04-22T11:13:02;93856.88;;;15.91;45.40
7918;BME280;4004;42.624;23.386;2023-04-22T11:15:34;93856.78;;;16.13;42.98
7918;BME280;4004;42.624;23.386;2023-04-22T11:18:01;93856.78;;;16.09;42.72
7918;BME280;4004;42.624;23.386;2023-04-22T11:20:28;93842.09;;;16.07;40.35
7918;BME280;4004;42.624;23.386;2023-04-22T11:22:56;93842.84;;;16.07;40.53
7918;BME280;4004;42.624;23.386;2023-04-22T11:25:25;93856.84;;;16.02;40.68
7918;BME280;4004;42.624;23.386;2023-04-22T11:27:52;93870.88;;;15.86;41.37
7918;BME280;4004;42.624;23.386;2023-04-22T11:30:20;93872.44;;;15.69;41.09
7918;BME280;4004;42.624;23.386;2023-04-22T11:32:49;93877.56;;;15.57;41.76
7918;BME280;4004;42.624;23.386;2023-04-22T11:35:18;93884.94;;;15.38;42.60
7918;BME280;4004;42.624;23.386;2023-04-22T11:37:47;93874.53;;;15.26;44.22
7918;BME280;4004;42.624;23.386;2023-04-22T11:40:16;93880.34;;;15.24;45.42
7918;BME280;4004;42.624;23.386;2023-04-22T11:42:43;93876.88;;;15.27;45.98
7918;BME280;4004;42.624;23.386;2023-04-22T11:45:10;93877.22;;;15.33;45.13
7918;BME280;4004;42.624;23.386;2023-04-22T11:47:39;93887.69;;;15.27;46.26
7918;BME280;4004;42.624;23.386;2023-04-22T11:50:08;93888.84;;;15.23;46.31
7918;BME280;4004;42.624;23.386;2023-04-22T11:52:47;93876.84;;;15.31;46.17
7918;BME280;4004;42.624;23.386;2023-04-22T11:55:16;93883.41;;;15.41;46.05
7918;BME280;4004;42.624;23.386;2023-04-22T11:57:44;93883.81;;;15.32;46.16
7918;BME280;4004;42.624;23.386;2023-04-22T12:00:13;93896.16;;;15.40;45.41
7918;BME280;4004;42.624;23.386;2023-04-22T12:02:42;93905.44;;;15.43;45.01
7918;BME280;4004;42.624;23.386;2023-04-22T12:05:11;93891.16;;;15.39;44.64
7918;BME280;4004;42.624;23.386;2023-04-22T12:07:38;93898.13;;;15.29;43.87
7918;BME280;4004;42.624;23.386;2023-04-22T12:10:06;93899.69;;;15.30;44.79
7918;BME280;4004;42.624;23.386;2023-04-22T12:12:33;93898.53;;;15.27;45.84
7918;BME280;4004;42.624;23.386;2023-04-22T12:15:09;93898.13;;;15.29;46.96
7918;BME280;4004;42.624;23.386;2023-04-22T12:17:36;93907.00;;;15.47;47.26
7918;BME280;4004;42.624;23.386;2023-04-22T12:20:04;93909.69;;;15.51;47.68
7918;BME280;4004;42.624;23.386;2023-04-22T12:22:33;93905.03;;;15.55;47.11
7918;BME280;4004;42.624;23.386;2023-04-22T12:25:00;93904.66;;;15.42;45.82
7918;BME280;4004;42.624;23.386;2023-04-22T12:27:27;93898.50;;;15.34;48.29
7918;BME280;4004;42.624;23.386;2023-04-22T12:29:55;93890.34;;;15.38;48.17
7918;BME280;4004;42.624;23.386;2023-04-22T12:32:24;93888.00;;;15.51;47.29
7918;BME280;4004;42.624;23.386;2023-04-22T12:34:51;93900.78;;;15.54;48.11
7918;BME280;4004;42.624;23.386;2023-04-22T12:37:18;93899.22;;;15.49;46.86
7918;BME280;4004;42.624;23.386;2023-04-22T12:39:46;93897.31;;;15.43;46.06
7918;BME280;4004;42.624;23.386;2023-04-22T12:42:13;93884.56;;;15.36;47.47
7918;BME280;4004;42.624;23.386;2023-04-22T12:44:39;93901.19;;;15.38;46.44
7918;BME280;4004;42.624;23.386;2023-04-22T12:47:07;93891.56;;;15.26;48.42
7918;BME280;4004;42.624;23.386;2023-04-22T12:49:35;93906.66;;;15.24;49.01
7918;BME280;4004;42.624;23.386;2023-04-22T12:52:03;93905.13;;;14.98;48.55
7918;BME280;4004;42.624;23.386;2023-04-22T12:54:30;93878.84;;;14.91;48.36
7918;BME280;4004;42.624;23.386;2023-04-22T12:56:58;93921.38;;;14.83;48.76
7918;BME280;4004;42.624;23.386;2023-04-22T12:59:26;93889.31;;;14.67;49.20
7918;BME280;4004;42.624;23.386;2023-04-22T13:01:52;93890.03;;;14.54;51.11
7918;BME280;4004;42.624;23.386;2023-04-22T13:04:20;93893.50;;;14.40;51.93
7918;BME280;4004;42.624;23.386;2023-04-22T13:06:47;93883.84;;;14.35;52.03
7918;BME280;4004;42.624;23.386;2023-04-22T13:09:21;93890.41;;;14.38;53.76
7918;BME280;4004;42.624;23.386;2023-04-22T13:11:47;93888.84;;;14.40;53.60
7918;BME280;4004;42.624;23.386;2023-04-22T13:14:16;93885.00;;;14.48;53.79